sensor_id;sensor_type;location;lat;lon;timestamp;temperature;humidity
30999;DHT22;20549;50.042;8.968;2023-11-21T00:00:22;12.20;99.90
30999;DHT22;20549;50.042;8.968;2023-11-21T00:02:49;12.20;99.90
30999;DHT22;20549;50.042;8.968;2023-11-21T00:05:15;12.20;99.90
30999;DHT22;20549;50.042;8.968;2023-11-21T00:07:42;12.20;99.90
30999;DHT22;20549;50.042;8.968;2023-11-21T00:10:09;12.20;99.90
30999;DHT22;20549;50.042;8.968;2023-11-21T00:12:35;12.20;99.90
30999;DHT22;20549;50.042;8.968;2023-11-21T00:15:02;12.20;99.90
30999;DHT22;20549;50.042;8.968;2023-11-21T00:17:28;12.20;99.90
30999;DHT22;20549;50.042;8.968;2023-11-21T00:19:55;12.20;99.90
30999;DHT22;20549;50.042;8.968;2023-11-21T00:22:21;12.20;99.90
30999;DHT22;20549;50.042;8.968;2023-11-21T00:24:48;12.20;99.90
30999;DHT22;20549;50.042;8.968;2023-11-21T00:27:14;12.20;99.90
30999;DHT22;20549;50.042;8.968;2023-11-21T00:29:41;12.20;99.90
30999;DHT22;20549;50.042;8.968;2023-11-21T00:32:08;12.20;99.90
30999;DHT22;20549;50.042;8.968;2023-11-21T00:34:34;12.20;99.90
30999;DHT22;20549;50.042;8.968;2023-11-21T00:37:01;12.20;99.90
30999;DHT22;20549;50.042;8.968;2023-11-21T00:39:27;12.20;99.90
30999;DHT22;20549;50.042;8.968;2023-11-21T00:41:54;12.20;99.90
30999;DHT22;20549;50.042;8.968;2023-11-21T00:44:21;12.20;99.90
30999;DHT22;20549;50.042;8.968;2023-11-21T00:46:47;12.20;99.90
30999;DHT22;20549;50.042;8.968;2023-11-21T00:49:14;12.20;99.90
30999;DHT22;20549;50.042;8.968;2023-11-21T00:51:40;12.20;99.90
30999;DHT22;20549;50.042;8.968;2023-11-21T00:54:07;12.20;99.90
30999;DHT22;20549;50.042;8.968;2023-11-21T00:56:34;12.20;99.90
30999;DHT22;20549;50.042;8.968;2023-11-21T00:59:00;12.20;99.90
30999;DHT22;20549;50.042;8.968;2023-11-21T01:01:27;12.20;99.90
30999;DHT22;20549;50.042;8.968;2023-11-21T01:03:53;12.30;99.90
30999;DHT22;20549;50.042;8.968;2023-11-21T01:06:20;12.30;99.90
30999;DHT22;20549;50.042;8.968;2023-11-21T01:08:46;12.30;99.90
30999;DHT22;20549;50.042;8.968;2023-11-21T01:11:13;12.30;99.90
30999;DHT22;20549;50.042;8.968;2023-11-21T01:13:40;12.30;99.90
30999;DHT22;20549;50.042;8.968;2023-11-21T01:16:06;12.30;99.90
30999;DHT22;20549;50.042;8.968;2023-11-21T01:18:33;12.30;99.90
30999;DHT22;20549;50.042;8.968;2023-11-21T01:20:59;12.30;99.90
30999;DHT22;20549;50.042;8.968;2023-11-21T01:23:26;12.30;99.90
30999;DHT22;20549;50.042;8.968;2023-11-21T01:25:53;12.30;99.90
30999;DHT22;20549;50.042;8.968;2023-11-21T01:28:19;12.30;99.90
30999;DHT22;20549;50.042;8.968;2023-11-21T01:30:46;12.30;99.90
30999;DHT22;20549;50.042;8.968;2023-11-21T01:33:12;12.30;99.90
30999;DHT22;20549;50.042;8.968;2023-11-21T01:35:39;12.30;99.90
30999;DHT22;20549;50.042;8.968;2023-11-21T01:38:05;12.30;99.90
30999;DHT22;20549;50.042;8.968;2023-11-21T01:40:32;12.30;99.90
30999;DHT22;20549;50.042;8.968;2023-11-21T01:42:59;12.20;99.90
30999;DHT22;20549;50.042;8.968;2023-11-21T01:45:25;12.30;99.90
30999;DHT22;20549;50.042;8.968;2023-11-21T01:47:52;12.20;99.90
30999;DHT22;20549;50.042;8.968;2023-11-21T01:50:18;12.20;99.90
30999;DHT22;20549;50.042;8.968;2023-11-21T01:52:45;12.20;99.90
30999;DHT22;20549;50.042;8.968;2023-11-21T01:55:12;12.20;99.90
30999;DHT22;20549;50.042;8.968;2023-11-21T01:57:38;12.20;99.90
30999;DHT22;20549;50.042;8.968;2023-11-21T02:00:05;12.20;99.90
30999;DHT22;20549;50.042;8.968;2023-11-21T02:02:37;12.20;99.90
30999;DHT22;20549;50.042;8.968;2023-11-21T02:05:04;12.20;99.90
30999;DHT22;20549;50.042;8.968;2023-11-21T02:07:30;12.10;99.90
30999;DHT22;20549;50.042;8.968;2023-11-21T02:09:57;12.10;99.90
30999;DHT22;20549;50.042;8.968;2023-11-21T02:12:23;12.10;99.90
30999;DHT22;20549;50.042;8.968;2023-11-21T02:14:50;12.10;99.90
30999;DHT22;20549;50.042;8.968;2023-11-21T02:17:17;12.20;99.90
30999;DHT22;20549;50.042;8.968;2023-11-21T02:19:43;12.20;99.90
30999;DHT22;20549;50.042;8.968;2023-11-21T02:22:10;12.10;99.90
30999;DHT22;20549;50.042;8.968;2023-11-21T02:24:36;12.20;99.90
30999;DHT22;20549;50.042;8.968;2023-11-21T02:27:03;12.20;99.90
30999;DHT22;20549;50.042;8.968;2023-11-21T02:29:29;12.10;99.90
30999;DHT22;20549;50.042;8.968;2023-11-21T02:31:56;12.20;99.90
30999;DHT22;20549;50.042;8.968;2023-11-21T02:34:23;12.20;99.90
30999;DHT22;20549;50.042;8.968;2023-11-21T02:36:49;12.20;99.90
30999;DHT22;20549;50.042;8.968;2023-11-21T02:39:16;12.20;99.90
30999;DHT22;20549;50.042;8.968;2023-11-21T02:41:45;12.20;99.90
30999;DHT22;20549;50.042;8.968;2023-11-21T02:44:11;12.20;99.90
30999;DHT22;20549;50.042;8.968;2023-11-21T02:46:38;12.20;99.90
30999;DHT22;20549;50.042;8.968;2023-11-21T02:49:05;12.20;99.90
30999;DHT22;20549;50.042;8.968;2023-11-21T02:51:34;12.20;99.90
30999;DHT22;20549;50.042;8.968;2023-11-21T02:54:01;12.20;99.90
30999;DHT22;20549;50.042;8.968;2023-11-21T02:56:27;12.20;99.90
30999;DHT22;20549;50.042;8.968;2023-11-21T02:58:56;12.20;99.90
30999;DHT22;20549;50.042;8.968;2023-11-21T03:01:23;12.20;99.90
30999;DHT22;20549;50.042;8.968;2023-11-21T03:03:52;12.20;99.90
30999;DHT22;20549;50.042;8.968;2023-11-21T03:06:19;12.20;99.90
30999;DHT22;20549;50.042;8.968;2023-11-21T03:08:46;12.20;99.90
30999;DHT22;20549;50.042;8.968;2023-11-21T03:11:12;12.20;99.90
30999;DHT22;20549;50.042;8.968;2023-11-21T03:13:41;12.10;99.90
30999;DHT22;20549;50.042;8.968;2023-11-21T03:16:12;12.10;99.90
30999;DHT22;20549;50.042;8.968;2023-11-21T03:18:34;12.10;99.90
30999;DHT22;20549;50.042;8.968;2023-11-21T03:21:01;12.10;99.90
30999;DHT22;20549;50.042;8.968;2023-11-21T03:23:28;12.10;99.90
30999;DHT22;20549;50.042;8.968;2023-11-21T03:25:54;12.10;99.90
30999;DHT22;20549;50.042;8.968;2023-11-21T03:28:21;12.10;99.90
30999;DHT22;20549;50.042;8.968;2023-11-21T03:30:47;12.10;99.90
30999;DHT22;20549;50.042;8.968;2023-11-21T03:33:14;12.10;99.90
30999;DHT22;20549;50.042;8.968;2023-11-21T03:35:41;12.10;99.90
30999;DHT22;20549;50.042;8.968;2023-11-21T03:38:07;12.10;99.90
30999;DHT22;20549;50.042;8.968;2023-11-21T03:40:34;12.10;99.90
30999;DHT22;20549;50.042;8.968;2023-11-21T03:43:00;12.10;99.90
30999;DHT22;20549;50.042;8.968;2023-11-21T03:45:27;12.10;99.90
30999;DHT22;20549;50.042;8.968;2023-11-21T03:47:53;12.10;99.90
30999;DHT22;20549;50.042;8.968;2023-11-21T03:50:20;12.10;99.90
30999;DHT22;20549;50.042;8.968;2023-11-21T03:52:47;12.20;99.90
30999;DHT22;20549;50.042;8.968;2023-11-21T03:55:13;12.10;99.90
30999;DHT22;20549;50.042;8.968;2023-11-21T03:57:40;12.20;99.90
30999;DHT22;20549;50.042;8.968;2023-11-21T04:00:06;12.20;99.90
30999;DHT22;20549;50.042;8.968;2023-11-21T04:02:33;12.20;99.90
30999;DHT22;20549;50.042;8.968;2023-11-21T04:05:00;12.20;99.90
30999;DHT22;20549;50.042;8.968;2023-11-21T04:07:26;12.20;99.90
30999;DHT22;20549;50.042;8.968;2023-11-21T04:09:53;12.20;99.90
30999;DHT22;20549;50.042;8.968;2023-11-21T04:12:19;12.20;99.90
30999;DHT22;20549;50.042;8.968;2023-11-21T04:14:46;12.20;99.90
30999;DHT22;20549;50.042;8.968;2023-11-21T04:17:13;12.20;99.90
30999;DHT22;20549;50.042;8.968;2023-11-21T04:19:39;12.20;99.90
30999;DHT22;20549;50.042;8.968;2023-11-21T04:22:06;12.20;99.90
30999;DHT22;20549;50.042;8.968;2023-11-21T04:24:32;12.20;99.90
30999;DHT22;20549;50.042;8.968;2023-11-21T04:26:59;12.20;99.90
30999;DHT22;20549;50.042;8.968;2023-11-21T04:29:26;12.20;99.90
30999;DHT22;20549;50.042;8.968;2023-11-21T04:31:52;12.20;99.90
30999;DHT22;20549;50.042;8.968;2023-11-21T04:34:19;12.20;99.90
30999;DHT22;20549;50.042;8.968;2023-11-21T04:36:45;12.20;99.90
30999;DHT22;20549;50.042;8.968;2023-11-21T04:39:12;12.20;99.90
30999;DHT22;20549;50.042;8.968;2023-11-21T04:41:38;12.20;99.90
30999;DHT22;20549;50.042;8.968;2023-11-21T04:44:08;12.20;99.90
30999;DHT22;20549;50.042;8.968;2023-11-21T04:46:35;12.20;99.90
30999;DHT22;20549;50.042;8.968;2023-11-21T04:49:01;12.20;99.90
30999;DHT22;20549;50.042;8.968;2023-11-21T04:51:28;12.20;99.90
30999;DHT22;20549;50.042;8.968;2023-11-21T04:53:54;12.20;99.90
30999;DHT22;20549;50.042;8.968;2023-11-21T04:56:21;12.20;99.90
30999;DHT22;20549;50.042;8.968;2023-11-21T04:58:47;12.20;99.90
30999;DHT22;20549;50.042;8.968;2023-11-21T05:01:14;12.20;99.90
30999;DHT22;20549;50.042;8.968;2023-11-21T05:03:41;12.20;99.90
30999;DHT22;20549;50.042;8.968;2023-11-21T05:06:09;12.20;99.90
30999;DHT22;20549;50.042;8.968;2023-11-21T05:08:34;12.20;99.90
30999;DHT22;20549;50.042;8.968;2023-11-21T05:11:00;12.20;99.90
30999;DHT22;20549;50.042;8.968;2023-11-21T05:13:27;12.20;99.90
30999;DHT22;20549;50.042;8.968;2023-11-21T05:15:56;12.10;99.90
30999;DHT22;20549;50.042;8.968;2023-11-21T05:18:25;12.10;99.90
30999;DHT22;20549;50.042;8.968;2023-11-21T05:20:55;12.10;99.90
30999;DHT22;20549;50.042;8.968;2023-11-21T05:23:21;12.10;99.90
30999;DHT22;20549;50.042;8.968;2023-11-21T05:25:48;12.10;99.90
30999;DHT22;20549;50.042;8.968;2023-11-21T05:28:14;12.10;99.90
30999;DHT22;20549;50.042;8.968;2023-11-21T05:30:41;12.10;99.90
30999;DHT22;20549;50.042;8.968;2023-11-21T05:33:07;12.10;99.90
30999;DHT22;20549;50.042;8.968;2023-11-21T05:35:34;12.10;99.90
30999;DHT22;20549;50.042;8.968;2023-11-21T05:38:01;12.10;99.90
30999;DHT22;20549;50.042;8.968;2023-11-21T05:40:27;12.10;99.90
30999;DHT22;20549;50.042;8.968;2023-11-21T05:42:54;12.10;99.90
30999;DHT22;20549;50.042;8.968;2023-11-21T05:45:20;12.20;99.90
30999;DHT22;20549;50.042;8.968;2023-11-21T05:47:47;12.20;99.90
30999;DHT22;20549;50.042;8.968;2023-11-21T05:50:14;12.20;99.90
30999;DHT22;20549;50.042;8.968;2023-11-21T05:52:44;12.20;99.90
30999;DHT22;20549;50.042;8.968;2023-11-21T05:55:10;12.20;99.90
30999;DHT22;20549;50.042;8.968;2023-11-21T05:57:36;12.10;99.90
30999;DHT22;20549;50.042;8.968;2023-11-21T06:00:07;12.20;99.90
30999;DHT22;20549;50.042;8.968;2023-11-21T06:02:29;12.20;99.90
30999;DHT22;20549;50.042;8.968;2023-11-21T06:04:56;12.20;99.90
30999;DHT22;20549;50.042;8.968;2023-11-21T06:07:22;12.20;99.90
30999;DHT22;20549;50.042;8.968;2023-11-21T06:09:49;12.20;99.90
30999;DHT22;20549;50.042;8.968;2023-11-21T06:12:16;12.20;99.90
30999;DHT22;20549;50.042;8.968;2023-11-21T06:14:42;12.20;99.90
30999;DHT22;20549;50.042;8.968;2023-11-21T06:17:09;12.20;99.90
30999;DHT22;20549;50.042;8.968;2023-11-21T06:19:36;12.20;99.90
30999;DHT22;20549;50.042;8.968;2023-11-21T06:22:02;12.20;99.90
30999;DHT22;20549;50.042;8.968;2023-11-21T06:24:29;12.20;99.90
30999;DHT22;20549;50.042;8.968;2023-11-21T06:26:55;12.20;99.90
30999;DHT22;20549;50.042;8.968;2023-11-21T06:29:22;12.20;99.90
30999;DHT22;20549;50.042;8.968;2023-11-21T06:31:49;12.10;99.90
30999;DHT22;20549;50.042;8.968;2023-11-21T06:34:15;12.10;99.90
30999;DHT22;20549;50.042;8.968;2023-11-21T06:36:41;12.10;99.90
30999;DHT22;20549;50.042;8.968;2023-11-21T06:39:08;12.10;99.90
30999;DHT22;20549;50.042;8.968;2023-11-21T06:41:35;12.20;99.90
30999;DHT22;20549;50.042;8.968;2023-11-21T06:44:01;12.20;99.90
30999;DHT22;20549;50.042;8.968;2023-11-21T06:46:28;12.20;99.90
30999;DHT22;20549;50.042;8.968;2023-11-21T06:48:54;12.20;99.90
30999;DHT22;20549;50.042;8.968;2023-11-21T06:51:21;12.20;99.90
30999;DHT22;20549;50.042;8.968;2023-11-21T06:53:48;12.20;99.90
30999;DHT22;20549;50.042;8.968;2023-11-21T06:56:18;12.20;99.90
30999;DHT22;20549;50.042;8.968;2023-11-21T06:58:45;12.20;99.90
30999;DHT22;20549;50.042;8.968;2023-11-21T07:01:11;12.20;99.90
30999;DHT22;20549;50.042;8.968;2023-11-21T07:03:37;12.20;99.90
30999;DHT22;20549;50.042;8.968;2023-11-21T07:06:04;12.20;99.90
30999;DHT22;20549;50.042;8.968;2023-11-21T07:08:30;12.10;99.90
30999;DHT22;20549;50.042;8.968;2023-11-21T07:10:57;12.10;99.90
30999;DHT22;20549;50.042;8.968;2023-11-21T07:13:23;12.20;99.90
30999;DHT22;20549;50.042;8.968;2023-11-21T07:15:50;12.20;99.90
30999;DHT22;20549;50.042;8.968;2023-11-21T07:18:17;12.20;99.90
30999;DHT22;20549;50.042;8.968;2023-11-21T07:20:43;12.20;99.90
30999;DHT22;20549;50.042;8.968;2023-11-21T07:23:10;12.20;99.90
30999;DHT22;20549;50.042;8.968;2023-11-21T07:25:36;12.20;99.90
30999;DHT22;20549;50.042;8.968;2023-11-21T07:28:03;12.20;99.90
30999;DHT22;20549;50.042;8.968;2023-11-21T07:30:29;12.20;99.90
30999;DHT22;20549;50.042;8.968;2023-11-21T07:32:56;12.20;99.90
30999;DHT22;20549;50.042;8.968;2023-11-21T07:35:23;12.30;99.90
30999;DHT22;20549;50.042;8.968;2023-11-21T07:37:49;12.30;99.90
30999;DHT22;20549;50.042;8.968;2023-11-21T07:40:16;12.30;99.90
30999;DHT22;20549;50.042;8.968;2023-11-21T07:42:42;12.30;99.90
30999;DHT22;20549;50.042;8.968;2023-11-21T07:45:09;12.30;99.90
30999;DHT22;20549;50.042;8.968;2023-11-21T07:47:36;12.30;99.90
30999;DHT22;20549;50.042;8.968;2023-11-21T07:50:02;12.30;99.90
30999;DHT22;20549;50.042;8.968;2023-11-21T07:52:29;12.30;99.90
30999;DHT22;20549;50.042;8.968;2023-11-21T07:54:55;12.30;99.90
30999;DHT22;20549;50.042;8.968;2023-11-21T07:57:22;12.30;99.90
30999;DHT22;20549;50.042;8.968;2023-11-21T07:59:49;12.40;99.90
30999;DHT22;20549;50.042;8.968;2023-11-21T08:02:15;12.40;99.90
30999;DHT22;20549;50.042;8.968;2023-11-21T08:04:42;12.40;99.90
30999;DHT22;20549;50.042;8.968;2023-11-21T08:07:08;12.40;99.90
30999;DHT22;20549;50.042;8.968;2023-11-21T08:09:35;12.50;99.90
30999;DHT22;20549;50.042;8.968;2023-11-21T08:12:01;12.50;99.90
30999;DHT22;20549;50.042;8.968;2023-11-21T08:14:28;12.50;99.90
30999;DHT22;20549;50.042;8.968;2023-11-21T08:16:55;12.60;99.90
30999;DHT22;20549;50.042;8.968;2023-11-21T08:19:21;12.60;99.90
30999;DHT22;20549;50.042;8.968;2023-11-21T08:21:48;12.70;99.90
30999;DHT22;20549;50.042;8.968;2023-11-21T08:24:14;12.70;99.90
30999;DHT22;20549;50.042;8.968;2023-11-21T08:26:41;12.80;99.90
30999;DHT22;20549;50.042;8.968;2023-11-21T08:29:08;12.80;99.90
30999;DHT22;20549;50.042;8.968;2023-11-21T08:31:34;12.90;99.90
30999;DHT22;20549;50.042;8.968;2023-11-21T08:34:01;12.90;99.90
30999;DHT22;20549;50.042;8.968;2023-11-21T08:36:27;12.90;99.90
30999;DHT22;20549;50.042;8.968;2023-11-21T08:38:54;13.00;99.90
30999;DHT22;20549;50.042;8.968;2023-11-21T08:41:21;13.00;99.90
30999;DHT22;20549;50.042;8.968;2023-11-21T08:43:50;13.00;99.90
30999;DHT22;20549;50.042;8.968;2023-11-21T08:46:17;13.00;99.90
30999;DHT22;20549;50.042;8.968;2023-11-21T08:48:43;13.10;99.90
30999;DHT22;20549;50.042;8.968;2023-11-21T08:51:11;13.10;99.90
30999;DHT22;20549;50.042;8.968;2023-11-21T08:53:37;13.20;99.90
30999;DHT22;20549;50.042;8.968;2023-11-21T08:56:03;13.20;99.90
30999;DHT22;20549;50.042;8.968;2023-11-21T08:58:33;13.20;99.90
30999;DHT22;20549;50.042;8.968;2023-11-21T09:00:56;13.20;99.90
30999;DHT22;20549;50.042;8.968;2023-11-21T09:03:23;13.30;99.90
30999;DHT22;20549;50.042;8.968;2023-11-21T09:05:50;13.30;99.90
30999;DHT22;20549;50.042;8.968;2023-11-21T09:08:16;13.30;99.90
30999;DHT22;20549;50.042;8.968;2023-11-21T09:10:43;13.40;99.90
30999;DHT22;20549;50.042;8.968;2023-11-21T09:13:09;13.40;99.90
30999;DHT22;20549;50.042;8.968;2023-11-21T09:15:36;13.40;99.90
30999;DHT22;20549;50.042;8.968;2023-11-21T09:18:03;13.40;99.90
30999;DHT22;20549;50.042;8.968;2023-11-21T09:20:29;13.40;99.90
30999;DHT22;20549;50.042;8.968;2023-11-21T09:22:56;13.40;99.90
30999;DHT22;20549;50.042;8.968;2023-11-21T09:25:22;13.40;99.90
30999;DHT22;20549;50.042;8.968;2023-11-21T09:27:49;13.40;99.90
30999;DHT22;20549;50.042;8.968;2023-11-21T09:30:15;13.40;99.90
30999;DHT22;20549;50.042;8.968;2023-11-21T09:32:42;13.40;99.90
30999;DHT22;20549;50.042;8.968;2023-11-21T09:35:09;13.40;99.90
30999;DHT22;20549;50.042;8.968;2023-11-21T09:37:35;13.40;99.90
30999;DHT22;20549;50.042;8.968;2023-11-21T09:40:02;13.40;99.90
30999;DHT22;20549;50.042;8.968;2023-11-21T09:42:40;13.40;99.90
30999;DHT22;20549;50.042;8.968;2023-11-21T09:47:39;13.40;99.90
30999;DHT22;20549;50.042;8.968;2023-11-21T09:50:05;13.40;99.90
30999;DHT22;20549;50.042;8.968;2023-11-21T09:52:39;13.40;99.90
30999;DHT22;20549;50.042;8.968;2023-11-21T09:55:01;13.40;99.90
30999;DHT22;20549;50.042;8.968;2023-11-21T09:57:28;13.40;99.90
30999;DHT22;20549;50.042;8.968;2023-11-21T09:59:57;13.40;99.90
30999;DHT22;20549;50.042;8.968;2023-11-21T10:02:27;13.50;99.90
30999;DHT22;20549;50.042;8.968;2023-11-21T10:04:53;13.60;99.90
30999;DHT22;20549;50.042;8.968;2023-11-21T10:07:20;13.60;99.90
30999;DHT22;20549;50.042;8.968;2023-11-21T10:09:46;13.70;99.90
30999;DHT22;20549;50.042;8.968;2023-11-21T10:12:12;13.70;99.90
30999;DHT22;20549;50.042;8.968;2023-11-21T10:14:40;13.70;99.90
30999;DHT22;20549;50.042;8.968;2023-11-21T10:17:06;13.80;99.90
30999;DHT22;20549;50.042;8.968;2023-11-21T10:19:32;13.80;99.90
30999;DHT22;20549;50.042;8.968;2023-11-21T10:21:59;13.90;99.90
30999;DHT22;20549;50.042;8.968;2023-11-21T10:24:25;13.90;99.90
30999;DHT22;20549;50.042;8.968;2023-11-21T10:26:52;13.90;99.90
30999;DHT22;20549;50.042;8.968;2023-11-21T10:29:19;13.90;99.90
30999;DHT22;20549;50.042;8.968;2023-11-21T10:31:45;13.80;99.90
30999;DHT22;20549;50.042;8.968;2023-11-21T10:34:15;13.80;99.90
30999;DHT22;20549;50.042;8.968;2023-11-21T10:36:41;13.70;99.90
30999;DHT22;20549;50.042;8.968;2023-11-21T10:39:08;13.70;99.90
30999;DHT22;20549;50.042;8.968;2023-11-21T10:41:34;13.60;99.90
30999;DHT22;20549;50.042;8.968;2023-11-21T10:44:01;13.50;99.90
30999;DHT22;20549;50.042;8.968;2023-11-21T10:46:27;13.50;99.90
30999;DHT22;20549;50.042;8.968;2023-11-21T10:48:54;13.40;99.90
30999;DHT22;20549;50.042;8.968;2023-11-21T10:51:21;13.40;99.90
30999;DHT22;20549;50.042;8.968;2023-11-21T10:53:47;13.40;99.90
30999;DHT22;20549;50.042;8.968;2023-11-21T10:56:14;13.40;99.90
30999;DHT22;20549;50.042;8.968;2023-11-21T10:58:43;13.40;99.90
30999;DHT22;20549;50.042;8.968;2023-11-21T11:01:10;13.40;99.90
30999;DHT22;20549;50.042;8.968;2023-11-21T11:03:39;13.40;99.90
30999;DHT22;20549;50.042;8.968;2023-11-21T11:06:05;13.50;99.90
30999;DHT22;20549;50.042;8.968;2023-11-21T11:08:32;13.50;99.90
30999;DHT22;20549;50.042;8.968;2023-11-21T11:10:58;13.60;99.90
30999;DHT22;20549;50.042;8.968;2023-11-21T11:13:25;13.60;99.90
30999;DHT22;20549;50.042;8.968;2023-11-21T11:15:55;13.70;99.90
30999;DHT22;20549;50.042;8.968;2023-11-21T11:18:18;13.80;99.90
30999;DHT22;20549;50.042;8.968;2023-11-21T11:20:45;13.90;99.90
30999;DHT22;20549;50.042;8.968;2023-11-21T11:23:22;13.90;99.90
30999;DHT22;20549;50.042;8.968;2023-11-21T11:28:35;14.20;99.90
30999;DHT22;20549;50.042;8.968;2023-11-21T11:33:41;14.40;99.90
30999;DHT22;20549;50.042;8.968;2023-11-21T11:38:53;14.60;99.90
30999;DHT22;20549;50.042;8.968;2023-11-21T11:41:26;14.80;99.90
30999;DHT22;20549;50.042;8.968;2023-11-21T11:43:53;14.90;99.90
30999;DHT22;20549;50.042;8.968;2023-11-21T11:46:19;15.00;99.90
30999;DHT22;20549;50.042;8.968;2023-11-21T11:48:49;15.10;99.90
30999;DHT22;20549;50.042;8.968;2023-11-21T11:51:15;15.20;99.90
30999;DHT22;20549;50.042;8.968;2023-11-21T11:53:45;15.30;99.90
30999;DHT22;20549;50.042;8.968;2023-11-21T11:56:30;15.30;99.90
30999;DHT22;20549;50.042;8.968;2023-11-21T11:58:59;15.40;99.90
30999;DHT22;20549;50.042;8.968;2023-11-21T12:01:26;15.40;99.90
30999;DHT22;20549;50.042;8.968;2023-11-21T12:06:42;15.50;99.90
30999;DHT22;20549;50.042;8.968;2023-11-21T12:09:06;15.50;99.90
30999;DHT22;20549;50.042;8.968;2023-11-21T12:11:32;15.50;99.90
30999;DHT22;20549;50.042;8.968;2023-11-21T12:13:59;15.50;99.90
30999;DHT22;20549;50.042;8.968;2023-11-21T12:16:26;15.50;99.90
30999;DHT22;20549;50.042;8.968;2023-11-21T12:18:55;15.50;99.90
30999;DHT22;20549;50.042;8.968;2023-11-21T12:21:22;15.50;99.90
30999;DHT22;20549;50.042;8.968;2023-11-21T12:23:48;15.50;99.70
30999;DHT22;20549;50.042;8.968;2023-11-21T12:26:15;15.50;99.20
30999;DHT22;20549;50.042;8.968;2023-11-21T12:28:41;15.50;99.30
30999;DHT22;20549;50.042;8.968;2023-11-21T12:31:08;15.50;98.80
30999;DHT22;20549;50.042;8.968;2023-11-21T12:33:35;15.50;98.50
30999;DHT22;20549;50.042;8.968;2023-11-21T12:36:01;15.40;98.20
30999;DHT22;20549;50.042;8.968;2023-11-21T12:38:34;15.40;97.70
30999;DHT22;20549;50.042;8.968;2023-11-21T12:41:00;15.30;97.60
30999;DHT22;20549;50.042;8.968;2023-11-21T12:43:28;15.30;97.80
30999;DHT22;20549;50.042;8.968;2023-11-21T12:46:06;15.20;97.70
30999;DHT22;20549;50.042;8.968;2023-11-21T12:48:32;15.20;98.00
30999;DHT22;20549;50.042;8.968;2023-11-21T12:50:59;15.20;98.30
30999;DHT22;20549;50.042;8.968;2023-11-21T12:53:25;15.10;98.40
30999;DHT22;20549;50.042;8.968;2023-11-21T12:55:52;15.10;98.20
30999;DHT22;20549;50.042;8.968;2023-11-21T12:58:19;15.10;97.60
30999;DHT22;20549;50.042;8.968;2023-11-21T13:00:46;15.10;97.50
30999;DHT22;20549;50.042;8.968;2023-11-21T13:03:12;15.00;97.20
30999;DHT22;20549;50.042;8.968;2023-11-21T13:05:39;15.00;97.00
30999;DHT22;20549;50.042;8.968;2023-11-21T13:08:07;14.90;96.70
30999;DHT22;20549;50.042;8.968;2023-11-21T13:10:31;14.90;96.80
30999;DHT22;20549;50.042;8.968;2023-11-21T13:12:58;14.80;96.80
30999;DHT22;20549;50.042;8.968;2023-11-21T13:15:24;14.80;97.00
30999;DHT22;20549;50.042;8.968;2023-11-21T13:17:51;14.70;97.40
30999;DHT22;20549;50.042;8.968;2023-11-21T13:20:18;14.70;96.90
30999;DHT22;20549;50.042;8.968;2023-11-21T13:22:54;14.70;96.90
30999;DHT22;20549;50.042;8.968;2023-11-21T13:25:25;14.70;96.90
30999;DHT22;20549;50.042;8.968;2023-11-21T13:27:54;14.60;96.80
30999;DHT22;20549;50.042;8.968;2023-11-21T13:30:21;14.60;96.60
30999;DHT22;20549;50.042;8.968;2023-11-21T13:32:53;14.60;96.50
30999;DHT22;20549;50.042;8.968;2023-11-21T13:35:20;14.50;96.40
30999;DHT22;20549;50.042;8.968;2023-11-21T13:37:50;14.50;96.50
30999;DHT22;20549;50.042;8.968;2023-11-21T13:40:13;14.50;96.50
30999;DHT22;20549;50.042;8.968;2023-11-21T13:42:40;14.40;96.30
30999;DHT22;20549;50.042;8.968;2023-11-21T13:45:06;14.40;96.40
30999;DHT22;20549;50.042;8.968;2023-11-21T13:47:33;14.40;96.40
30999;DHT22;20549;50.042;8.968;2023-11-21T13:49:59;14.30;96.30
30999;DHT22;20549;50.042;8.968;2023-11-21T13:52:26;14.30;96.30
30999;DHT22;20549;50.042;8.968;2023-11-21T13:54:52;14.30;96.20
30999;DHT22;20549;50.042;8.968;2023-11-21T13:57:19;14.20;96.00
30999;DHT22;20549;50.042;8.968;2023-11-21T13:59:46;14.20;95.80
30999;DHT22;20549;50.042;8.968;2023-11-21T14:02:12;14.20;95.70
30999;DHT22;20549;50.042;8.968;2023-11-21T14:04:39;14.10;95.50
30999;DHT22;20549;50.042;8.968;2023-11-21T14:07:05;14.10;95.50
30999;DHT22;20549;50.042;8.968;2023-11-21T14:09:38;14.00;95.50
30999;DHT22;20549;50.042;8.968;2023-11-21T14:12:04;14.00;95.50
30999;DHT22;20549;50.042;8.968;2023-11-21T14:14:31;14.00;95.60
30999;DHT22;20549;50.042;8.968;2023-11-21T14:16:57;13.90;95.70
30999;DHT22;20549;50.042;8.968;2023-11-21T14:19:24;13.90;95.90
30999;DHT22;20549;50.042;8.968;2023-11-21T14:21:50;13.80;95.90
30999;DHT22;20549;50.042;8.968;2023-11-21T14:24:17;13.80;96.00
30999;DHT22;20549;50.042;8.968;2023-11-21T14:26:44;13.70;96.00
30999;DHT22;20549;50.042;8.968;2023-11-21T14:29:10;13.70;96.10
30999;DHT22;20549;50.042;8.968;2023-11-21T14:31:37;13.70;96.10
30999;DHT22;20549;50.042;8.968;2023-11-21T14:34:03;13.60;96.20
30999;DHT22;20549;50.042;8.968;2023-11-21T14:36:30;13.60;96.30
30999;DHT22;20549;50.042;8.968;2023-11-21T14:38:57;13.60;96.10
30999;DHT22;20549;50.042;8.968;2023-11-21T14:41:23;13.50;96.60
30999;DHT22;20549;50.042;8.968;2023-11-21T14:43:50;13.50;96.60
30999;DHT22;20549;50.042;8.968;2023-11-21T14:46:16;13.50;96.80
30999;DHT22;20549;50.042;8.968;2023-11-21T14:48:43;13.40;96.90
30999;DHT22;20549;50.042;8.968;2023-11-21T14:51:10;13.40;97.00
30999;DHT22;20549;50.042;8.968;2023-11-21T14:53:51;13.40;97.20
30999;DHT22;20549;50.042;8.968;2023-11-21T14:56:21;13.40;97.40
30999;DHT22;20549;50.042;8.968;2023-11-21T14:58:47;13.30;97.50
30999;DHT22;20549;50.042;8.968;2023-11-21T15:01:14;13.30;97.60
30999;DHT22;20549;50.042;8.968;2023-11-21T15:03:41;13.30;97.80
30999;DHT22;20549;50.042;8.968;2023-11-21T15:06:07;13.30;97.80
30999;DHT22;20549;50.042;8.968;2023-11-21T15:08:49;13.30;97.90
30999;DHT22;20549;50.042;8.968;2023-11-21T15:11:15;13.30;98.00
30999;DHT22;20549;50.042;8.968;2023-11-21T15:13:42;13.20;98.10
30999;DHT22;20549;50.042;8.968;2023-11-21T15:16:08;13.20;98.00
30999;DHT22;20549;50.042;8.968;2023-11-21T15:18:35;13.20;98.10
30999;DHT22;20549;50.042;8.968;2023-11-21T15:21:01;13.20;98.20
30999;DHT22;20549;50.042;8.968;2023-11-21T15:23:28;13.20;98.30
30999;DHT22;20549;50.042;8.968;2023-11-21T15:25:55;13.10;98.30
30999;DHT22;20549;50.042;8.968;2023-11-21T15:28:21;13.10;98.40
30999;DHT22;20549;50.042;8.968;2023-11-21T15:30:48;13.10;98.40
30999;DHT22;20549;50.042;8.968;2023-11-21T15:33:14;13.10;98.40
30999;DHT22;20549;50.042;8.968;2023-11-21T15:35:41;13.00;98.50
30999;DHT22;20549;50.042;8.968;2023-11-21T15:38:07;13.00;98.60
30999;DHT22;20549;50.042;8.968;2023-11-21T15:40:34;13.00;98.70